CheckWX is a tool to help pilots better visualize weather data.  It is not intended as a substitute for an official pre-flight weather briefing.

12:34:53 UTC

KGWW METAR
Wayne Executive Jetport Airport
Goldsboro, North Carolina, USA
Current

15 mins ago

KGWW 221220Z AUTO 05004KT 5SM -DZ OVC004 10/10 A3025 RMK AO2 T01000100
Observed
Feb-22 @ 12:20 UTC
Wind
  • 050° at 4 KTS
Visibility
5 SM
Flight Rules
LIFR
Conditions
Light Drizzle
Cloud Levels
  • Overcast at 400' AGL
Temperature
10°C / 50°F
Dewpoint
10°C / 50°F
Humidity
100%
Altimeter
30.25" Hg
Pressure
1024.42 hPa
Previous

35 mins ago

KGWW 221200Z AUTO 02004KT 7SM BKN006 OVC014 10/10 A3024 RMK AO2 T00970097
Observed
Feb-22 @ 12:00 UTC
Wind
  • 020° at 4 KTS
Visibility
7 SM
Flight Rules
IFR
Cloud Levels
  • Broken at 600' AGL
  • Overcast at 1,400' AGL
Temperature
10°C / 50°F
Dewpoint
10°C / 50°F
Humidity
100%
Altimeter
30.24" Hg
Pressure
1024.02 hPa
Previous

55 mins ago

KGWW 221140Z AUTO 01004KT 4SM +DZ SCT008 BKN024 OVC041 10/10 A3023 RMK AO2 T00960096
Observed
Feb-22 @ 11:40 UTC
Wind
  • 010° at 4 KTS
Visibility
4 SM
Flight Rules
MVFR
Conditions
Heavy Drizzle
Cloud Levels
  • Scattered at 800' AGL
  • Broken at 2,400' AGL
  • Overcast at 4,100' AGL
Temperature
10°C / 50°F
Dewpoint
10°C / 50°F
Humidity
100%
Altimeter
30.23" Hg
Pressure
1023.72 hPa